sensor_id;sensor_type;location;lat;lon;timestamp;P1;durP1;ratioP1;P2;durP2;ratioP2
15393;SDS011;7795;47.986;11.868;2023-05-07T00:01:27;2.43;;;2.23;;
15393;SDS011;7795;47.986;11.868;2023-05-07T00:03:53;4.80;;;2.40;;
15393;SDS011;7795;47.986;11.868;2023-05-07T00:06:18;4.13;;;2.40;;
15393;SDS011;7795;47.986;11.868;2023-05-07T00:08:44;2.37;;;2.17;;
15393;SDS011;7795;47.986;11.868;2023-05-07T00:11:10;2.13;;;2.00;;
15393;SDS011;7795;47.986;11.868;2023-05-07T00:13:36;2.17;;;2.03;;
15393;SDS011;7795;47.986;11.868;2023-05-07T00:16:02;2.73;;;1.87;;
15393;SDS011;7795;47.986;11.868;2023-05-07T00:18:29;2.90;;;2.50;;
15393;SDS011;7795;47.986;11.868;2023-05-07T00:20:55;3.60;;;2.40;;
15393;SDS011;7795;47.986;11.868;2023-05-07T00:23:21;2.80;;;2.33;;
15393;SDS011;7795;47.986;11.868;2023-05-07T00:25:47;1.97;;;1.80;;
15393;SDS011;7795;47.986;11.868;2023-05-07T00:28:13;2.17;;;1.60;;
15393;SDS011;7795;47.986;11.868;2023-05-07T00:30:38;2.40;;;1.77;;
15393;SDS011;7795;47.986;11.868;2023-05-07T00:33:04;2.10;;;1.60;;
15393;SDS011;7795;47.986;11.868;2023-05-07T00:35:31;2.00;;;1.90;;
15393;SDS011;7795;47.986;11.868;2023-05-07T00:37:57;1.70;;;1.60;;
15393;SDS011;7795;47.986;11.868;2023-05-07T00:40:23;1.70;;;1.60;;
15393;SDS011;7795;47.986;11.868;2023-05-07T00:42:48;1.30;;;1.20;;
15393;SDS011;7795;47.986;11.868;2023-05-07T00:45:14;2.80;;;1.50;;
15393;SDS011;7795;47.986;11.868;2023-05-07T00:47:40;2.33;;;1.87;;
15393;SDS011;7795;47.986;11.868;2023-05-07T00:50:07;2.17;;;1.70;;
15393;SDS011;7795;47.986;11.868;2023-05-07T00:52:37;3.43;;;1.87;;
15393;SDS011;7795;47.986;11.868;2023-05-07T00:55:04;2.17;;;1.80;;
15393;SDS011;7795;47.986;11.868;2023-05-07T00:57:32;2.20;;;2.00;;
15393;SDS011;7795;47.986;11.868;2023-05-07T01:00:01;1.83;;;1.73;;
15393;SDS011;7795;47.986;11.868;2023-05-07T01:02:28;2.37;;;2.17;;
15393;SDS011;7795;47.986;11.868;2023-05-07T01:04:54;2.37;;;1.73;;
15393;SDS011;7795;47.986;11.868;2023-05-07T01:07:20;2.30;;;1.97;;
15393;SDS011;7795;47.986;11.868;2023-05-07T01:09:47;1.80;;;1.70;;
15393;SDS011;7795;47.986;11.868;2023-05-07T01:12:13;2.17;;;1.97;;
15393;SDS011;7795;47.986;11.868;2023-05-07T01:14:40;1.87;;;1.70;;
15393;SDS011;7795;47.986;11.868;2023-05-07T01:17:06;2.37;;;2.13;;
15393;SDS011;7795;47.986;11.868;2023-05-07T01:19:33;2.60;;;2.40;;
15393;SDS011;7795;47.986;11.868;2023-05-07T01:22:01;2.47;;;1.90;;
15393;SDS011;7795;47.986;11.868;2023-05-07T01:24:30;2.40;;;2.23;;
15393;SDS011;7795;47.986;11.868;2023-05-07T01:26:56;3.30;;;2.50;;
15393;SDS011;7795;47.986;11.868;2023-05-07T01:29:22;3.00;;;2.17;;
15393;SDS011;7795;47.986;11.868;2023-05-07T01:31:48;2.33;;;2.20;;
15393;SDS011;7795;47.986;11.868;2023-05-07T01:34:16;2.20;;;2.10;;
15393;SDS011;7795;47.986;11.868;2023-05-07T01:36:43;1.80;;;1.70;;
15393;SDS011;7795;47.986;11.868;2023-05-07T01:39:10;2.30;;;1.50;;
15393;SDS011;7795;47.986;11.868;2023-05-07T01:41:37;1.67;;;1.57;;
15393;SDS011;7795;47.986;11.868;2023-05-07T01:44:03;1.93;;;1.83;;
15393;SDS011;7795;47.986;11.868;2023-05-07T01:46:30;1.80;;;1.70;;
15393;SDS011;7795;47.986;11.868;2023-05-07T01:48:57;1.63;;;1.53;;
15393;SDS011;7795;47.986;11.868;2023-05-07T01:51:23;2.10;;;2.00;;
15393;SDS011;7795;47.986;11.868;2023-05-07T01:53:49;2.10;;;1.90;;
15393;SDS011;7795;47.986;11.868;2023-05-07T01:56:17;2.27;;;2.07;;
15393;SDS011;7795;47.986;11.868;2023-05-07T01:58:44;1.83;;;1.73;;
15393;SDS011;7795;47.986;11.868;2023-05-07T02:01:12;2.47;;;1.90;;
15393;SDS011;7795;47.986;11.868;2023-05-07T02:03:38;2.50;;;2.03;;
15393;SDS011;7795;47.986;11.868;2023-05-07T02:06:04;2.00;;;1.90;;
15393;SDS011;7795;47.986;11.868;2023-05-07T02:08:30;2.17;;;1.93;;
15393;SDS011;7795;47.986;11.868;2023-05-07T02:10:56;2.90;;;1.90;;
15393;SDS011;7795;47.986;11.868;2023-05-07T02:13:21;1.73;;;1.63;;
15393;SDS011;7795;47.986;11.868;2023-05-07T02:15:50;3.00;;;2.20;;
15393;SDS011;7795;47.986;11.868;2023-05-07T02:18:16;1.83;;;1.73;;
15393;SDS011;7795;47.986;11.868;2023-05-07T02:20:42;2.10;;;2.00;;
15393;SDS011;7795;47.986;11.868;2023-05-07T02:23:08;3.80;;;2.03;;
15393;SDS011;7795;47.986;11.868;2023-05-07T02:25:34;2.40;;;2.20;;
15393;SDS011;7795;47.986;11.868;2023-05-07T02:28:00;3.13;;;2.03;;
15393;SDS011;7795;47.986;11.868;2023-05-07T02:30:25;2.33;;;2.13;;
15393;SDS011;7795;47.986;11.868;2023-05-07T02:32:52;2.13;;;1.93;;
15393;SDS011;7795;47.986;11.868;2023-05-07T02:35:18;2.00;;;1.90;;
15393;SDS011;7795;47.986;11.868;2023-05-07T02:37:44;2.00;;;1.70;;
15393;SDS011;7795;47.986;11.868;2023-05-07T02:40:10;1.90;;;1.80;;
15393;SDS011;7795;47.986;11.868;2023-05-07T02:42:36;2.10;;;1.90;;
15393;SDS011;7795;47.986;11.868;2023-05-07T02:45:02;1.70;;;1.60;;
15393;SDS011;7795;47.986;11.868;2023-05-07T02:47:29;2.00;;;1.90;;
15393;SDS011;7795;47.986;11.868;2023-05-07T02:49:56;2.13;;;2.00;;
15393;SDS011;7795;47.986;11.868;2023-05-07T02:52:21;2.10;;;1.80;;
15393;SDS011;7795;47.986;11.868;2023-05-07T02:54:50;1.77;;;1.67;;
15393;SDS011;7795;47.986;11.868;2023-05-07T02:57:16;1.80;;;1.70;;
15393;SDS011;7795;47.986;11.868;2023-05-07T02:59:42;2.10;;;1.90;;
15393;SDS011;7795;47.986;11.868;2023-05-07T03:02:08;1.77;;;1.67;;
15393;SDS011;7795;47.986;11.868;2023-05-07T03:04:33;1.77;;;1.67;;
15393;SDS011;7795;47.986;11.868;2023-05-07T03:07:00;1.73;;;1.50;;
15393;SDS011;7795;47.986;11.868;2023-05-07T03:09:26;2.10;;;1.90;;
15393;SDS011;7795;47.986;11.868;2023-05-07T03:11:52;2.30;;;1.90;;
15393;SDS011;7795;47.986;11.868;2023-05-07T03:14:18;1.90;;;1.80;;
15393;SDS011;7795;47.986;11.868;2023-05-07T03:16:43;2.23;;;2.07;;
15393;SDS011;7795;47.986;11.868;2023-05-07T03:19:09;2.30;;;2.10;;
15393;SDS011;7795;47.986;11.868;2023-05-07T03:21:35;2.20;;;2.00;;
15393;SDS011;7795;47.986;11.868;2023-05-07T03:24:02;2.00;;;1.80;;
15393;SDS011;7795;47.986;11.868;2023-05-07T03:26:28;2.60;;;1.60;;
15393;SDS011;7795;47.986;11.868;2023-05-07T03:28:54;1.80;;;1.70;;
15393;SDS011;7795;47.986;11.868;2023-05-07T03:31:20;2.03;;;1.83;;
15393;SDS011;7795;47.986;11.868;2023-05-07T03:33:49;1.70;;;1.60;;
15393;SDS011;7795;47.986;11.868;2023-05-07T03:36:16;3.70;;;2.20;;
15393;SDS011;7795;47.986;11.868;2023-05-07T03:38:42;2.30;;;2.10;;
15393;SDS011;7795;47.986;11.868;2023-05-07T03:41:09;2.20;;;2.10;;
15393;SDS011;7795;47.986;11.868;2023-05-07T03:43:34;2.20;;;2.00;;
15393;SDS011;7795;47.986;11.868;2023-05-07T03:46:00;2.43;;;1.77;;
15393;SDS011;7795;47.986;11.868;2023-05-07T03:48:26;2.47;;;2.17;;
15393;SDS011;7795;47.986;11.868;2023-05-07T03:50:52;2.53;;;1.87;;
15393;SDS011;7795;47.986;11.868;2023-05-07T03:53:17;2.13;;;1.97;;
15393;SDS011;7795;47.986;11.868;2023-05-07T03:55:43;2.20;;;1.57;;
15393;SDS011;7795;47.986;11.868;2023-05-07T03:58:10;1.80;;;1.70;;
15393;SDS011;7795;47.986;11.868;2023-05-07T04:00:36;2.17;;;1.97;;
15393;SDS011;7795;47.986;11.868;2023-05-07T04:03:05;1.80;;;1.70;;
15393;SDS011;7795;47.986;11.868;2023-05-07T04:05:31;1.97;;;1.87;;
15393;SDS011;7795;47.986;11.868;2023-05-07T04:07:57;2.00;;;1.90;;
15393;SDS011;7795;47.986;11.868;2023-05-07T04:10:23;1.30;;;1.20;;
15393;SDS011;7795;47.986;11.868;2023-05-07T04:12:49;1.27;;;1.17;;
15393;SDS011;7795;47.986;11.868;2023-05-07T04:15:16;1.53;;;1.43;;
15393;SDS011;7795;47.986;11.868;2023-05-07T04:17:42;1.47;;;1.37;;
15393;SDS011;7795;47.986;11.868;2023-05-07T04:20:08;1.57;;;1.47;;
15393;SDS011;7795;47.986;11.868;2023-05-07T04:22:35;2.00;;;1.90;;
15393;SDS011;7795;47.986;11.868;2023-05-07T04:25:02;1.80;;;1.70;;
15393;SDS011;7795;47.986;11.868;2023-05-07T04:27:28;1.70;;;1.60;;
15393;SDS011;7795;47.986;11.868;2023-05-07T04:29:53;2.17;;;1.97;;
15393;SDS011;7795;47.986;11.868;2023-05-07T04:32:22;2.00;;;1.90;;
15393;SDS011;7795;47.986;11.868;2023-05-07T04:34:50;1.60;;;1.50;;
15393;SDS011;7795;47.986;11.868;2023-05-07T04:37:15;1.90;;;1.80;;
15393;SDS011;7795;47.986;11.868;2023-05-07T04:39:42;2.00;;;1.83;;
15393;SDS011;7795;47.986;11.868;2023-05-07T04:42:07;2.00;;;1.90;;
15393;SDS011;7795;47.986;11.868;2023-05-07T04:44:33;2.33;;;1.90;;
15393;SDS011;7795;47.986;11.868;2023-05-07T04:46:59;2.50;;;2.30;;
15393;SDS011;7795;47.986;11.868;2023-05-07T04:49:26;3.17;;;2.10;;
15393;SDS011;7795;47.986;11.868;2023-05-07T04:51:52;1.77;;;1.67;;
15393;SDS011;7795;47.986;11.868;2023-05-07T04:54:18;2.60;;;2.40;;
15393;SDS011;7795;47.986;11.868;2023-05-07T04:56:43;2.40;;;2.27;;
15393;SDS011;7795;47.986;11.868;2023-05-07T04:59:09;2.10;;;1.90;;
15393;SDS011;7795;47.986;11.868;2023-05-07T05:01:35;2.37;;;2.17;;
15393;SDS011;7795;47.986;11.868;2023-05-07T05:04:01;3.30;;;2.27;;
15393;SDS011;7795;47.986;11.868;2023-05-07T05:06:28;2.03;;;1.93;;
15393;SDS011;7795;47.986;11.868;2023-05-07T05:08:54;2.23;;;2.03;;
15393;SDS011;7795;47.986;11.868;2023-05-07T05:11:20;2.00;;;1.90;;
15393;SDS011;7795;47.986;11.868;2023-05-07T05:13:46;2.57;;;2.10;;
15393;SDS011;7795;47.986;11.868;2023-05-07T05:16:14;2.67;;;2.17;;
15393;SDS011;7795;47.986;11.868;2023-05-07T05:18:40;1.80;;;1.70;;
15393;SDS011;7795;47.986;11.868;2023-05-07T05:21:06;2.50;;;2.30;;
15393;SDS011;7795;47.986;11.868;2023-05-07T05:23:33;2.47;;;2.33;;
15393;SDS011;7795;47.986;11.868;2023-05-07T05:25:58;2.40;;;2.20;;
15393;SDS011;7795;47.986;11.868;2023-05-07T05:28:24;2.63;;;2.43;;
15393;SDS011;7795;47.986;11.868;2023-05-07T05:30:50;3.80;;;2.60;;
15393;SDS011;7795;47.986;11.868;2023-05-07T05:33:16;3.27;;;2.87;;
15393;SDS011;7795;47.986;11.868;2023-05-07T05:35:42;2.73;;;2.50;;
15393;SDS011;7795;47.986;11.868;2023-05-07T05:38:08;3.63;;;2.70;;
15393;SDS011;7795;47.986;11.868;2023-05-07T05:40:35;3.03;;;2.57;;
15393;SDS011;7795;47.986;11.868;2023-05-07T05:43:00;2.80;;;2.37;;
15393;SDS011;7795;47.986;11.868;2023-05-07T05:45:26;2.50;;;2.30;;
15393;SDS011;7795;47.986;11.868;2023-05-07T05:47:52;2.67;;;2.47;;
15393;SDS011;7795;47.986;11.868;2023-05-07T05:50:18;3.07;;;2.77;;
15393;SDS011;7795;47.986;11.868;2023-05-07T05:52:44;3.20;;;2.87;;
15393;SDS011;7795;47.986;11.868;2023-05-07T05:55:10;2.87;;;2.63;;
15393;SDS011;7795;47.986;11.868;2023-05-07T05:57:37;3.23;;;2.53;;
15393;SDS011;7795;47.986;11.868;2023-05-07T06:00:03;3.47;;;2.80;;
15393;SDS011;7795;47.986;11.868;2023-05-07T06:02:30;3.60;;;3.30;;
15393;SDS011;7795;47.986;11.868;2023-05-07T06:04:55;3.90;;;3.00;;
15393;SDS011;7795;47.986;11.868;2023-05-07T06:07:21;3.80;;;3.50;;
15393;SDS011;7795;47.986;11.868;2023-05-07T06:09:47;3.80;;;3.50;;
15393;SDS011;7795;47.986;11.868;2023-05-07T06:12:13;4.00;;;3.70;;
15393;SDS011;7795;47.986;11.868;2023-05-07T06:14:40;3.70;;;3.40;;
15393;SDS011;7795;47.986;11.868;2023-05-07T06:17:08;4.33;;;3.97;;
15393;SDS011;7795;47.986;11.868;2023-05-07T06:19:33;4.10;;;3.70;;
15393;SDS011;7795;47.986;11.868;2023-05-07T06:22:00;5.27;;;4.07;;
15393;SDS011;7795;47.986;11.868;2023-05-07T06:24:26;4.17;;;3.87;;
15393;SDS011;7795;47.986;11.868;2023-05-07T06:26:52;5.67;;;3.80;;
15393;SDS011;7795;47.986;11.868;2023-05-07T06:29:18;3.53;;;3.23;;
15393;SDS011;7795;47.986;11.868;2023-05-07T06:31:45;4.13;;;3.83;;
15393;SDS011;7795;47.986;11.868;2023-05-07T06:34:11;3.97;;;3.60;;
15393;SDS011;7795;47.986;11.868;2023-05-07T06:36:39;3.40;;;3.10;;
15393;SDS011;7795;47.986;11.868;2023-05-07T06:39:05;4.87;;;3.80;;
15393;SDS011;7795;47.986;11.868;2023-05-07T06:41:31;4.03;;;3.60;;
15393;SDS011;7795;47.986;11.868;2023-05-07T06:43:56;3.70;;;3.40;;
15393;SDS011;7795;47.986;11.868;2023-05-07T06:46:22;4.47;;;3.10;;
15393;SDS011;7795;47.986;11.868;2023-05-07T06:48:49;6.27;;;3.47;;
15393;SDS011;7795;47.986;11.868;2023-05-07T06:51:15;3.00;;;2.70;;
15393;SDS011;7795;47.986;11.868;2023-05-07T06:53:41;3.83;;;3.33;;
15393;SDS011;7795;47.986;11.868;2023-05-07T06:56:06;3.57;;;3.20;;
15393;SDS011;7795;47.986;11.868;2023-05-07T06:58:32;6.33;;;3.40;;
15393;SDS011;7795;47.986;11.868;2023-05-07T07:00:58;4.27;;;2.80;;
15393;SDS011;7795;47.986;11.868;2023-05-07T07:03:24;5.20;;;3.50;;
15393;SDS011;7795;47.986;11.868;2023-05-07T07:05:52;3.87;;;2.90;;
15393;SDS011;7795;47.986;11.868;2023-05-07T07:08:18;3.43;;;2.80;;
15393;SDS011;7795;47.986;11.868;2023-05-07T07:10:46;3.30;;;2.80;;
15393;SDS011;7795;47.986;11.868;2023-05-07T07:13:11;3.27;;;3.03;;
15393;SDS011;7795;47.986;11.868;2023-05-07T07:15:37;2.90;;;2.70;;
15393;SDS011;7795;47.986;11.868;2023-05-07T07:18:03;3.27;;;2.80;;
15393;SDS011;7795;47.986;11.868;2023-05-07T07:20:29;5.63;;;2.93;;
15393;SDS011;7795;47.986;11.868;2023-05-07T07:22:56;5.23;;;3.37;;
15393;SDS011;7795;47.986;11.868;2023-05-07T07:25:22;2.83;;;2.60;;
15393;SDS011;7795;47.986;11.868;2023-05-07T07:27:48;4.50;;;2.57;;
15393;SDS011;7795;47.986;11.868;2023-05-07T07:30:14;2.93;;;2.47;;
15393;SDS011;7795;47.986;11.868;2023-05-07T07:32:40;2.70;;;2.50;;
15393;SDS011;7795;47.986;11.868;2023-05-07T07:35:06;3.07;;;2.40;;
15393;SDS011;7795;47.986;11.868;2023-05-07T07:37:33;6.27;;;2.90;;
15393;SDS011;7795;47.986;11.868;2023-05-07T07:40:00;2.77;;;2.47;;
15393;SDS011;7795;47.986;11.868;2023-05-07T07:42:26;2.50;;;2.30;;
15393;SDS011;7795;47.986;11.868;2023-05-07T07:44:53;3.57;;;2.70;;
15393;SDS011;7795;47.986;11.868;2023-05-07T07:47:19;2.97;;;2.40;;
15393;SDS011;7795;47.986;11.868;2023-05-07T07:49:44;3.57;;;3.17;;
15393;SDS011;7795;47.986;11.868;2023-05-07T07:52:10;2.57;;;2.37;;
15393;SDS011;7795;47.986;11.868;2023-05-07T07:54:36;3.13;;;2.83;;
15393;SDS011;7795;47.986;11.868;2023-05-07T07:57:03;3.10;;;2.63;;
15393;SDS011;7795;47.986;11.868;2023-05-07T07:59:28;4.37;;;2.63;;
15393;SDS011;7795;47.986;11.868;2023-05-07T08:01:54;4.40;;;2.80;;
15393;SDS011;7795;47.986;11.868;2023-05-07T08:04:21;2.70;;;2.50;;
15393;SDS011;7795;47.986;11.868;2023-05-07T08:06:47;3.00;;;2.80;;
15393;SDS011;7795;47.986;11.868;2023-05-07T08:09:13;3.10;;;2.70;;
15393;SDS011;7795;47.986;11.868;2023-05-07T08:11:39;3.03;;;2.40;;
15393;SDS011;7795;47.986;11.868;2023-05-07T08:14:06;2.50;;;2.30;;
15393;SDS011;7795;47.986;11.868;2023-05-07T08:16:32;2.80;;;2.60;;
15393;SDS011;7795;47.986;11.868;2023-05-07T08:18:57;2.60;;;2.30;;
15393;SDS011;7795;47.986;11.868;2023-05-07T08:21:23;3.03;;;2.40;;
15393;SDS011;7795;47.986;11.868;2023-05-07T08:23:49;2.60;;;2.40;;
15393;SDS011;7795;47.986;11.868;2023-05-07T08:26:15;2.60;;;2.40;;
15393;SDS011;7795;47.986;11.868;2023-05-07T08:28:40;2.57;;;2.33;;
15393;SDS011;7795;47.986;11.868;2023-05-07T08:31:07;3.27;;;2.43;;
15393;SDS011;7795;47.986;11.868;2023-05-07T08:33:33;2.40;;;2.20;;
15393;SDS011;7795;47.986;11.868;2023-05-07T08:35:59;2.70;;;2.50;;
15393;SDS011;7795;47.986;11.868;2023-05-07T08:38:25;3.00;;;2.73;;
15393;SDS011;7795;47.986;11.868;2023-05-07T08:40:50;2.63;;;2.43;;
15393;SDS011;7795;47.986;11.868;2023-05-07T08:43:16;2.83;;;2.63;;
15393;SDS011;7795;47.986;11.868;2023-05-07T08:45:43;2.90;;;2.63;;
15393;SDS011;7795;47.986;11.868;2023-05-07T08:48:15;2.77;;;2.43;;
15393;SDS011;7795;47.986;11.868;2023-05-07T08:50:41;3.50;;;2.60;;
15393;SDS011;7795;47.986;11.868;2023-05-07T08:53:07;3.73;;;2.70;;
15393;SDS011;7795;47.986;11.868;2023-05-07T08:55:33;7.33;;;3.07;;
15393;SDS011;7795;47.986;11.868;2023-05-07T08:57:59;2.50;;;2.30;;
15393;SDS011;7795;47.986;11.868;2023-05-07T09:00:26;3.07;;;2.77;;
15393;SDS011;7795;47.986;11.868;2023-05-07T09:02:51;3.87;;;3.30;;
15393;SDS011;7795;47.986;11.868;2023-05-07T09:05:19;3.20;;;2.90;;
15393;SDS011;7795;47.986;11.868;2023-05-07T09:07:44;3.30;;;2.97;;
15393;SDS011;7795;47.986;11.868;2023-05-07T09:10:11;3.20;;;2.70;;
15393;SDS011;7795;47.986;11.868;2023-05-07T09:12:38;2.87;;;2.57;;
15393;SDS011;7795;47.986;11.868;2023-05-07T09:15:05;3.57;;;3.27;;
15393;SDS011;7795;47.986;11.868;2023-05-07T09:17:32;3.30;;;3.00;;
15393;SDS011;7795;47.986;11.868;2023-05-07T09:20:01;3.23;;;2.93;;
15393;SDS011;7795;47.986;11.868;2023-05-07T09:22:29;4.10;;;3.20;;
15393;SDS011;7795;47.986;11.868;2023-05-07T09:24:56;2.80;;;2.60;;
15393;SDS011;7795;47.986;11.868;2023-05-07T09:27:22;3.00;;;2.80;;
15393;SDS011;7795;47.986;11.868;2023-05-07T09:29:48;2.97;;;2.63;;
15393;SDS011;7795;47.986;11.868;2023-05-07T09:32:13;5.97;;;2.87;;
15393;SDS011;7795;47.986;11.868;2023-05-07T09:34:41;3.33;;;2.70;;
15393;SDS011;7795;47.986;11.868;2023-05-07T09:37:07;2.63;;;2.20;;
15393;SDS011;7795;47.986;11.868;2023-05-07T09:39:41;3.30;;;2.13;;
15393;SDS011;7795;47.986;11.868;2023-05-07T09:42:08;2.80;;;2.50;;
15393;SDS011;7795;47.986;11.868;2023-05-07T09:44:34;2.70;;;2.50;;
15393;SDS011;7795;47.986;11.868;2023-05-07T09:47:00;3.63;;;2.90;;
15393;SDS011;7795;47.986;11.868;2023-05-07T09:49:29;3.33;;;3.03;;
15393;SDS011;7795;47.986;11.868;2023-05-07T09:51:55;2.73;;;2.53;;
15393;SDS011;7795;47.986;11.868;2023-05-07T09:54:21;3.50;;;2.37;;
15393;SDS011;7795;47.986;11.868;2023-05-07T09:56:49;2.00;;;1.90;;
15393;SDS011;7795;47.986;11.868;2023-05-07T09:59:16;2.67;;;2.30;;
15393;SDS011;7795;47.986;11.868;2023-05-07T10:01:43;3.17;;;2.40;;
15393;SDS011;7795;47.986;11.868;2023-05-07T10:04:10;2.80;;;1.80;;
15393;SDS011;7795;47.986;11.868;2023-05-07T10:06:36;2.53;;;2.03;;
15393;SDS011;7795;47.986;11.868;2023-05-07T10:09:02;2.33;;;1.70;;
15393;SDS011;7795;47.986;11.868;2023-05-07T10:11:32;2.10;;;1.90;;
15393;SDS011;7795;47.986;11.868;2023-05-07T10:14:00;2.30;;;2.10;;
15393;SDS011;7795;47.986;11.868;2023-05-07T10:16:27;2.80;;;2.50;;
15393;SDS011;7795;47.986;11.868;2023-05-07T10:18:55;3.10;;;2.13;;
15393;SDS011;7795;47.986;11.868;2023-05-07T10:21:23;1.93;;;1.53;;
15393;SDS011;7795;47.986;11.868;2023-05-07T10:23:49;2.80;;;2.13;;
15393;SDS011;7795;47.986;11.868;2023-05-07T10:26:16;2.20;;;2.00;;
15393;SDS011;7795;47.986;11.868;2023-05-07T10:28:44;2.07;;;1.70;;
15393;SDS011;7795;47.986;11.868;2023-05-07T10:31:18;2.00;;;1.80;;
15393;SDS011;7795;47.986;11.868;2023-05-07T10:33:56;1.97;;;1.87;;
15393;SDS011;7795;47.986;11.868;2023-05-07T10:36:22;1.90;;;1.70;;
15393;SDS011;7795;47.986;11.868;2023-05-07T10:38:49;5.00;;;2.23;;
15393;SDS011;7795;47.986;11.868;2023-05-07T10:41:15;2.70;;;1.70;;
15393;SDS011;7795;47.986;11.868;2023-05-07T10:43:44;1.48;;;1.38;;
15393;SDS011;7795;47.986;11.868;2023-05-07T10:46:11;3.43;;;2.07;;
15393;SDS011;7795;47.986;11.868;2023-05-07T10:51:46;2.73;;;1.90;;
15393;SDS011;7795;47.986;11.868;2023-05-07T10:54:39;4.22;;;1.60;;
15393;SDS011;7795;47.986;11.868;2023-05-07T11:03:07;2.03;;;1.40;;
15393;SDS011;7795;47.986;11.868;2023-05-07T11:05:34;1.63;;;1.30;;
15393;SDS011;7795;47.986;11.868;2023-05-07T11:08:01;3.23;;;1.80;;
15393;SDS011;7795;47.986;11.868;2023-05-07T11:13:16;1.77;;;1.33;;
15393;SDS011;7795;47.986;11.868;2023-05-07T11:15:43;3.47;;;1.35;;
15393;SDS011;7795;47.986;11.868;2023-05-07T11:18:10;1.48;;;1.38;;
15393;SDS011;7795;47.986;11.868;2023-05-07T11:20:49;1.88;;;1.30;;
15393;SDS011;7795;47.986;11.868;2023-05-07T11:26:21;1.50;;;1.40;;
15393;SDS011;7795;47.986;11.868;2023-05-07T11:28:47;1.92;;;1.30;;
15393;SDS011;7795;47.986;11.868;2023-05-07T11:31:13;1.92;;;1.48;;
15393;SDS011;7795;47.986;11.868;2023-05-07T11:33:45;2.78;;;1.38;;
15393;SDS011;7795;47.986;11.868;2023-05-07T11:36:12;3.10;;;1.90;;
15393;SDS011;7795;47.986;11.868;2023-05-07T11:38:38;2.22;;;1.38;;
15393;SDS011;7795;47.986;11.868;2023-05-07T11:41:04;1.70;;;1.48;;
15393;SDS011;7795;47.986;11.868;2023-05-07T11:43:30;1.98;;;1.67;;
15393;SDS011;7795;47.986;11.868;2023-05-07T11:46:04;1.67;;;1.50;;
15393;SDS011;7795;47.986;11.868;2023-05-07T11:48:32;2.13;;;1.40;;
15393;SDS011;7795;47.986;11.868;2023-05-07T11:50:59;2.85;;;1.50;;
15393;SDS011;7795;47.986;11.868;2023-05-07T11:53:33;2.90;;;1.55;;
15393;SDS011;7795;47.986;11.868;2023-05-07T11:56:01;1.70;;;1.60;;
15393;SDS011;7795;47.986;11.868;2023-05-07T11:58:31;3.05;;;1.80;;
15393;SDS011;7795;47.986;11.868;2023-05-07T12:00:57;2.05;;;1.73;;
15393;SDS011;7795;47.986;11.868;2023-05-07T12:03:23;1.75;;;1.60;;
15393;SDS011;7795;47.986;11.868;2023-05-07T12:05:48;2.05;;;1.40;;
15393;SDS011;7795;47.986;11.868;2023-05-07T12:08:14;3.88;;;2.05;;
15393;SDS011;7795;47.986;11.868;2023-05-07T12:10:42;1.60;;;1.50;;
15393;SDS011;7795;47.986;11.868;2023-05-07T12:13:13;2.17;;;1.90;;
15393;SDS011;7795;47.986;11.868;2023-05-07T12:15:40;2.15;;;1.88;;
15393;SDS011;7795;47.986;11.868;2023-05-07T12:18:05;2.42;;;1.52;;
15393;SDS011;7795;47.986;11.868;2023-05-07T12:20:32;2.47;;;1.75;;
15393;SDS011;7795;47.986;11.868;2023-05-07T12:22:59;2.30;;;2.10;;
15393;SDS011;7795;47.986;11.868;2023-05-07T12:25:26;2.85;;;1.63;;
15393;SDS011;7795;47.986;11.868;2023-05-07T12:27:53;2.70;;;2.00;;
15393;SDS011;7795;47.986;11.868;2023-05-07T12:30:19;2.85;;;1.88;;
15393;SDS011;7795;47.986;11.868;2023-05-07T12:32:44;2.03;;;1.85;;
15393;SDS011;7795;47.986;11.868;2023-05-07T12:35:10;1.88;;;1.77;;
15393;SDS011;7795;47.986;11.868;2023-05-07T12:37:36;2.08;;;1.67;;
15393;SDS011;7795;47.986;11.868;2023-05-07T12:40:05;2.78;;;2.10;;
15393;SDS011;7795;47.986;11.868;2023-05-07T12:42:32;2.15;;;1.70;;
15393;SDS011;7795;47.986;11.868;2023-05-07T12:45:08;2.80;;;2.08;;
15393;SDS011;7795;47.986;11.868;2023-05-07T12:47:34;2.63;;;1.80;;
15393;SDS011;7795;47.986;11.868;2023-05-07T12:50:01;2.25;;;1.65;;
15393;SDS011;7795;47.986;11.868;2023-05-07T12:52:27;2.72;;;1.70;;
15393;SDS011;7795;47.986;11.868;2023-05-07T12:54:53;1.95;;;1.60;;
15393;SDS011;7795;47.986;11.868;2023-05-07T12:57:19;2.85;;;1.73;;
15393;SDS011;7795;47.986;11.868;2023-05-07T12:59:45;2.63;;;1.73;;
15393;SDS011;7795;47.986;11.868;2023-05-07T13:02:13;3.05;;;1.70;;
15393;SDS011;7795;47.986;11.868;2023-05-07T13:04:39;2.08;;;1.52;;
15393;SDS011;7795;47.986;11.868;2023-05-07T13:07:05;1.80;;;1.65;;
15393;SDS011;7795;47.986;11.868;2023-05-07T13:09:30;2.13;;;1.73;;
15393;SDS011;7795;47.986;11.868;2023-05-07T13:11:57;1.85;;;1.42;;
15393;SDS011;7795;47.986;11.868;2023-05-07T13:14:26;1.85;;;1.75;;
15393;SDS011;7795;47.986;11.868;2023-05-07T13:16:52;2.30;;;2.03;;
15393;SDS011;7795;47.986;11.868;2023-05-07T13:19:19;1.70;;;1.60;;
15393;SDS011;7795;47.986;11.868;2023-05-07T13:21:44;2.03;;;1.60;;
15393;SDS011;7795;47.986;11.868;2023-05-07T13:24:10;1.88;;;1.50;;
15393;SDS011;7795;47.986;11.868;2023-05-07T13:26:36;1.50;;;1.40;;
15393;SDS011;7795;47.986;11.868;2023-05-07T13:29:01;1.80;;;1.70;;
15393;SDS011;7795;47.986;11.868;2023-05-07T13:31:27;1.85;;;1.55;;
15393;SDS011;7795;47.986;11.868;2023-05-07T13:33:53;1.65;;;1.50;;
15393;SDS011;7795;47.986;11.868;2023-05-07T13:36:22;1.88;;;1.35;;
15393;SDS011;7795;47.986;11.868;2023-05-07T13:38:48;3.15;;;1.83;;
15393;SDS011;7795;47.986;11.868;2023-05-07T13:41:15;2.53;;;1.70;;
15393;SDS011;7795;47.986;11.868;2023-05-07T13:43:41;2.22;;;1.48;;
15393;SDS011;7795;47.986;11.868;2023-05-07T13:46:06;1.85;;;1.75;;
15393;SDS011;7795;47.986;11.868;2023-05-07T13:48:32;1.50;;;1.40;;
15393;SDS011;7795;47.986;11.868;2023-05-07T13:50:58;2.15;;;1.65;;
15393;SDS011;7795;47.986;11.868;2023-05-07T13:53:25;2.00;;;1.60;;
15393;SDS011;7795;47.986;11.868;2023-05-07T13:55:50;2.17;;;1.50;;
15393;SDS011;7795;47.986;11.868;2023-05-07T13:58:16;2.88;;;1.70;;
15393;SDS011;7795;47.986;11.868;2023-05-07T14:00:42;1.55;;;1.45;;
15393;SDS011;7795;47.986;11.868;2023-05-07T14:03:08;2.72;;;1.55;;
15393;SDS011;7795;47.986;11.868;2023-05-07T14:05:34;1.38;;;1.27;;
15393;SDS011;7795;47.986;11.868;2023-05-07T14:08:00;2.85;;;1.60;;
15393;SDS011;7795;47.986;11.868;2023-05-07T14:10:28;1.50;;;1.40;;
15393;SDS011;7795;47.986;11.868;2023-05-07T14:12:53;1.95;;;1.60;;
15393;SDS011;7795;47.986;11.868;2023-05-07T14:15:19;2.92;;;1.48;;
15393;SDS011;7795;47.986;11.868;2023-05-07T14:17:45;1.50;;;1.30;;
15393;SDS011;7795;47.986;11.868;2023-05-07T14:20:12;4.15;;;2.85;;
15393;SDS011;7795;47.986;11.868;2023-05-07T14:22:37;1.70;;;1.40;;
15393;SDS011;7795;47.986;11.868;2023-05-07T14:25:04;2.00;;;1.40;;
15393;SDS011;7795;47.986;11.868;2023-05-07T14:27:32;2.65;;;1.50;;
15393;SDS011;7795;47.986;11.868;2023-05-07T14:29:57;2.58;;;1.50;;
15393;SDS011;7795;47.986;11.868;2023-05-07T14:32:23;1.75;;;1.42;;
15393;SDS011;7795;47.986;11.868;2023-05-07T14:34:49;2.20;;;1.42;;
15393;SDS011;7795;47.986;11.868;2023-05-07T14:37:15;3.08;;;1.58;;
15393;SDS011;7795;47.986;11.868;2023-05-07T14:39:41;2.00;;;1.40;;
15393;SDS011;7795;47.986;11.868;2023-05-07T14:42:06;1.55;;;1.40;;
15393;SDS011;7795;47.986;11.868;2023-05-07T14:44:37;1.33;;;1.10;;
15393;SDS011;7795;47.986;11.868;2023-05-07T14:47:06;1.60;;;1.27;;
15393;SDS011;7795;47.986;11.868;2023-05-07T14:49:32;2.35;;;1.42;;
15393;SDS011;7795;47.986;11.868;2023-05-07T14:51:58;1.33;;;1.23;;
15393;SDS011;7795;47.986;11.868;2023-05-07T14:54:25;3.35;;;1.40;;
15393;SDS011;7795;47.986;11.868;2023-05-07T14:56:51;1.83;;;1.20;;
15393;SDS011;7795;47.986;11.868;2023-05-07T14:59:17;2.42;;;1.83;;